createdAt,value
2023-01-11T00:01:38.082Z,80.14
2023-01-11T00:06:40.621Z,79.93
2023-01-11T00:11:43.512Z,79.86
2023-01-11T00:16:46.156Z,79.66
2023-01-11T00:21:49.677Z,79.76
2023-01-11T00:26:52.405Z,79.39
2023-01-11T00:31:55.187Z,79.54
2023-01-11T00:36:58.186Z,79.48
2023-01-11T00:42:19.632Z,79.54
2023-01-11T00:47:41.093Z,79.57
2023-01-11T00:52:43.586Z,79.39
2023-01-11T00:57:46.289Z,79.11
2023-01-11T01:02:49.970Z,79.22
2023-01-11T01:07:52.704Z,78.95
2023-01-11T01:13:14.078Z,79.23
2023-01-11T01:18:16.692Z,78.86
2023-01-11T01:23:19.209Z,78.90
2023-01-11T01:28:22.352Z,79.10
2023-01-11T01:33:25.165Z,78.58
2023-01-11T01:38:28.333Z,78.95
2023-01-11T01:43:51.654Z,78.78
2023-01-11T01:49:01.871Z,78.87
2023-01-11T01:54:08.308Z,79.17
2023-01-11T01:59:15.527Z,79.19
2023-01-11T02:04:26.664Z,79.24
2023-01-11T02:09:38.816Z,78.94
2023-01-11T02:14:43.176Z,78.70
2023-01-11T02:20:17.824Z,78.94
2023-01-11T02:25:52.598Z,78.74
2023-01-11T02:31:16.096Z,78.67
2023-01-11T02:36:37.746Z,78.56
2023-01-11T02:42:17.900Z,78.55
2023-01-11T02:47:30.226Z,78.30
2023-01-11T02:52:39.899Z,78.33
2023-01-11T02:57:44.960Z,77.92
2023-01-11T03:02:47.509Z,78.19
2023-01-11T03:08:31.160Z,77.69
2023-01-11T03:14:01.589Z,77.65
2023-01-11T03:19:26.283Z,77.30
2023-01-11T03:24:45.781Z,76.76
2023-01-11T03:30:07.881Z,76.58
2023-01-11T03:35:37.852Z,76.06
2023-01-11T03:40:46.649Z,75.85
2023-01-11T03:46:05.543Z,75.95
2023-01-11T03:51:12.533Z,75.72
2023-01-11T03:56:20.207Z,75.48
2023-01-11T04:01:24.560Z,75.48
2023-01-11T04:06:27.178Z,75.45
2023-01-11T04:11:29.790Z,75.53
2023-01-11T04:16:32.343Z,75.47
2023-01-11T04:21:35.051Z,75.34
2023-01-11T04:26:37.588Z,75.59
2023-01-11T04:31:40.222Z,75.73
2023-01-11T04:36:42.810Z,75.64
2023-01-11T04:42:04.214Z,75.46
2023-01-11T04:47:06.719Z,75.73
2023-01-11T04:52:14.713Z,75.59
2023-01-11T04:57:17.689Z,75.74
2023-01-11T05:02:20.371Z,75.64
2023-01-11T05:07:22.923Z,75.74
2023-01-11T05:12:25.498Z,75.75
2023-01-11T05:17:28.241Z,76.05
2023-01-11T05:22:30.868Z,75.98
2023-01-11T05:27:33.599Z,76.09
2023-01-11T05:32:36.306Z,75.92
2023-01-11T05:37:39.013Z,76.01
2023-01-11T05:42:41.689Z,75.86
2023-01-11T05:47:44.188Z,75.90
2023-01-11T05:52:47.128Z,76.26
2023-01-11T05:57:51.079Z,76.63
2023-01-11T06:02:54.259Z,76.50
2023-01-11T06:07:57.225Z,77.19
2023-01-11T06:13:18.669Z,77.18
2023-01-11T06:18:21.527Z,77.50
2023-01-11T06:23:25.605Z,77.92
2023-01-11T06:28:28.230Z,77.99
2023-01-11T06:33:31.454Z,77.90
2023-01-11T06:38:34.925Z,78.25
2023-01-11T06:43:42.210Z,78.13
2023-01-11T06:48:46.241Z,78.33
2023-01-11T06:53:48.829Z,78.24
2023-01-11T06:58:52.605Z,78.39
2023-01-11T07:03:55.470Z,78.51
2023-01-11T07:08:58.541Z,78.64
2023-01-11T07:14:01.146Z,78.51
2023-01-11T07:19:03.736Z,78.64
2023-01-11T07:24:06.494Z,78.68
2023-01-11T07:29:09.195Z,78.87
2023-01-11T07:34:12.195Z,78.69
2023-01-11T07:39:15.489Z,78.63
2023-01-11T07:44:18.463Z,78.40
2023-01-11T07:49:21.278Z,78.66
2023-01-11T07:54:24.795Z,78.63
2023-01-11T07:59:27.330Z,78.47
2023-01-11T08:04:30.236Z,78.62
2023-01-11T08:09:32.847Z,78.37
2023-01-11T08:14:41.323Z,78.56
2023-01-11T08:19:43.950Z,78.39
2023-01-11T08:24:46.620Z,78.59
2023-01-11T08:29:49.176Z,78.64
2023-01-11T08:34:51.739Z,78.64
2023-01-11T08:39:55.941Z,78.69
2023-01-11T08:44:58.626Z,78.79
2023-01-11T08:50:01.213Z,78.87
2023-01-11T08:55:07.693Z,79.73
2023-01-11T09:00:11.312Z,80.14
2023-01-11T09:05:13.942Z,81.07
2023-01-11T09:10:16.516Z,81.50
2023-01-11T09:15:19.631Z,81.76
2023-01-11T09:20:23.873Z,82.69
2023-01-11T09:25:26.578Z,83.50
2023-01-11T09:30:29.349Z,83.70
2023-01-11T09:35:32.006Z,84.34
2023-01-11T09:40:49.374Z,85.04
2023-01-11T09:45:53.183Z,85.62
2023-01-11T09:50:57.722Z,86.11
2023-01-11T09:56:05.079Z,86.68
2023-01-11T10:01:46.215Z,87.20
2023-01-11T10:07:12.480Z,88.45
2023-01-11T10:18:49.341Z,89.32
2023-01-11T10:24:12.076Z,89.09
2023-01-11T10:29:30.314Z,89.52
2023-01-11T10:34:52.389Z,90.25
2023-01-11T10:40:39.833Z,90.41
2023-01-11T10:45:50.754Z,90.52
2023-01-11T10:51:17.759Z,91.59
2023-01-11T10:57:02.953Z,91.30
2023-01-11T11:02:13.534Z,91.19
2023-01-11T11:07:25.991Z,91.50
2023-01-11T11:12:31.700Z,91.80
2023-01-11T11:17:36.925Z,92.10
2023-01-11T11:22:39.483Z,92.20
2023-01-11T11:27:47.727Z,92.42
2023-01-11T11:32:59.797Z,92.89
2023-01-11T11:38:02.536Z,93.02
2023-01-11T11:43:22.235Z,92.67
2023-01-11T11:48:27.408Z,93.54
2023-01-11T11:53:35.503Z,94.21
2023-01-11T11:58:41.147Z,94.24
2023-01-11T12:03:43.836Z,94.20
2023-01-11T12:08:46.487Z,94.63
2023-01-11T12:14:02.176Z,94.73
2023-01-11T12:19:50.677Z,95.09
2023-01-11T12:25:05.867Z,95.47
2023-01-11T12:30:46.452Z,95.26
2023-01-11T12:36:03.147Z,95.87
2023-01-11T12:41:42.663Z,95.79
2023-01-11T12:47:04.199Z,96.02
2023-01-11T12:52:12.696Z,96.62
2023-01-11T12:57:34.092Z,96.43
2023-01-11T13:02:55.090Z,96.38
2023-01-11T13:08:16.387Z,96.59
2023-01-11T13:13:29.803Z,96.59
2023-01-11T13:18:59.380Z,96.43
2023-01-11T13:24:12.369Z,97.01
2023-01-11T13:29:37.708Z,96.83
2023-01-11T13:34:47.547Z,96.95
2023-01-11T13:39:57.034Z,97.50
2023-01-11T13:45:09.248Z,97.71
2023-01-11T13:50:32.130Z,97.75
2023-01-11T13:56:09.841Z,98.01
2023-01-11T14:01:17.564Z,98.02
2023-01-11T14:06:42.006Z,98.21
2023-01-11T14:12:05.429Z,97.99
2023-01-11T14:17:24.579Z,98.29
2023-01-11T14:22:41.347Z,98.32
2023-01-11T14:27:59.192Z,98.86
2023-01-11T14:33:36.710Z,98.63
2023-01-11T14:39:15.722Z,98.63
2023-01-11T14:44:32.914Z,98.64
2023-01-11T14:49:57.959Z,98.81
2023-01-11T14:55:05.348Z,98.95
2023-01-11T15:00:34.311Z,99.08
2023-01-11T15:05:54.648Z,99.21
2023-01-11T15:11:02.233Z,99.28
2023-01-11T15:16:28.370Z,99.33
2023-01-11T15:21:35.627Z,99.31
2023-01-11T15:26:48.730Z,99.38
2023-01-11T15:31:54.266Z,99.37
2023-01-11T15:36:59.939Z,99.46
2023-01-11T15:42:16.167Z,99.83
2023-01-11T15:47:42.605Z,99.76
2023-01-11T15:53:17.749Z,99.88
2023-01-11T15:58:45.723Z,100.00
2023-01-11T16:04:00.412Z,100.00
2023-01-11T16:09:41.968Z,100.00
2023-01-11T16:14:56.501Z,100.00
2023-01-11T16:20:18.934Z,100.00
2023-01-11T16:25:25.045Z,100.00
2023-01-11T16:30:28.811Z,100.00
2023-01-11T16:35:31.344Z,100.00
2023-01-11T16:40:37.752Z,100.00
2023-01-11T16:45:43.543Z,100.00
2023-01-11T16:50:50.994Z,100.00
2023-01-11T16:56:09.588Z,100.00
2023-01-11T17:01:15.327Z,100.00
2023-01-11T17:06:22.038Z,100.00
2023-01-11T17:11:39.574Z,100.00
2023-01-11T17:16:49.093Z,100.00
2023-01-11T17:22:05.279Z,100.00
2023-01-11T17:27:18.454Z,100.00
2023-01-11T17:32:35.565Z,100.00
2023-01-11T17:37:39.072Z,100.00
2023-01-11T17:43:00.161Z,100.00
2023-01-11T17:48:12.934Z,100.00
2023-01-11T17:53:20.977Z,100.00
2023-01-11T17:58:28.773Z,100.00
2023-01-11T18:03:38.940Z,100.00
2023-01-11T18:08:47.899Z,100.00
2023-01-11T18:13:52.890Z,100.00
2023-01-11T18:18:56.021Z,100.00
2023-01-11T18:24:07.792Z,100.00
2023-01-11T18:29:42.289Z,100.00
2023-01-11T18:34:48.068Z,100.00
2023-01-11T18:39:52.383Z,100.00
2023-01-11T18:44:55.119Z,100.00
2023-01-11T18:49:58.029Z,100.00
2023-01-11T18:55:00.589Z,100.00
2023-01-11T19:00:03.683Z,100.00
2023-01-11T19:05:09.995Z,100.00
2023-01-11T19:10:19.241Z,100.00
2023-01-11T19:15:21.808Z,100.00
2023-01-11T19:20:24.690Z,100.00
2023-01-11T19:25:28.336Z,100.00
2023-01-11T19:30:31.394Z,100.00
2023-01-11T19:35:33.951Z,100.00
2023-01-11T19:40:36.634Z,100.00
2023-01-11T19:45:39.325Z,100.00
2023-01-11T19:50:42.072Z,100.00
2023-01-11T19:55:44.721Z,100.00
2023-01-11T20:00:47.418Z,100.00
2023-01-11T20:05:50.430Z,100.00
2023-01-11T20:10:53.705Z,100.00
2023-01-11T20:15:56.337Z,100.00
2023-01-11T20:20:59.350Z,100.00
2023-01-11T20:26:04.440Z,100.00
2023-01-11T20:31:07.850Z,100.00
2023-01-11T20:36:16.208Z,100.00
2023-01-11T20:41:41.667Z,100.00
2023-01-11T20:46:47.873Z,100.00
2023-01-11T20:51:51.016Z,100.00
2023-01-11T20:56:53.755Z,100.00
2023-01-11T21:01:56.353Z,100.00
2023-01-11T21:06:58.967Z,100.00
2023-01-11T21:12:01.587Z,100.00
2023-01-11T21:17:04.269Z,100.00
2023-01-11T21:22:07.610Z,99.98
2023-01-11T21:27:10.573Z,99.83
2023-01-11T21:32:13.165Z,99.76
2023-01-11T21:37:15.864Z,99.80
2023-01-11T21:42:19.183Z,99.54
2023-01-11T21:47:22.279Z,99.19
2023-01-11T21:52:25.010Z,99.20
2023-01-11T21:57:27.698Z,98.99
2023-01-11T22:02:30.240Z,98.93
2023-01-11T22:07:33.389Z,98.94
2023-01-11T22:12:36.143Z,99.03
2023-01-11T22:17:39.101Z,98.78
2023-01-11T22:22:41.851Z,98.84
2023-01-11T22:27:44.526Z,98.94
2023-01-11T22:32:47.975Z,98.83
2023-01-11T22:37:50.663Z,98.58
2023-01-11T22:42:53.274Z,98.43
2023-01-11T22:47:59.179Z,98.29
2023-01-11T22:53:02.217Z,98.20
2023-01-11T22:58:05.083Z,98.02
2023-01-11T23:03:07.912Z,97.92
2023-01-11T23:08:10.768Z,97.65
2023-01-11T23:13:32.209Z,97.57
2023-01-11T23:18:34.724Z,97.41
2023-01-11T23:23:40.409Z,97.30
2023-01-11T23:28:43.025Z,97.14
2023-01-11T23:33:51.869Z,97.00
2023-01-11T23:38:54.398Z,96.83
2023-01-11T23:43:57.895Z,96.80
2023-01-11T23:49:03.807Z,96.61
2023-01-11T23:54:06.997Z,96.69
2023-01-11T23:59:09.792Z,96.78
